Time;durP1;ratioP1;P1;durP2;ratioP2;P2;SDS_P1;SDS_P2;PMS_P1;PMS_P2;Temp;Humidity;BMP_temperature;BMP_pressure;BME280_temperature;BME280_humidity;BME280_pressure;Samples;Min_cycle;Max_cycle;Signal;HPM_P1;HPM_P2
2023/12/16 00:00:32;;;;;;;15.10;3.28;;;8.00;99.90;;;;;;5073518;28;20048;-73
2023/12/16 00:02:57;;;;;;;6.65;2.92;;;8.00;99.90;;;;;;5074712;28;20495;-74
2023/12/16 00:05:23;;;;;;;5.15;2.20;;;8.00;99.90;;;;;;5072888;28;20032;-74
2023/12/16 00:07:49;;;;;;;7.75;3.22;;;8.00;99.90;;;;;;5073230;28;20040;-73
2023/12/16 00:10:16;;;;;;;7.63;2.78;;;8.00;99.90;;;;;;5073096;28;20037;-74
2023/12/16 00:12:42;;;;;;;8.55;2.55;;;8.10;99.90;;;;;;5073427;28;20032;-74
2023/12/16 00:15:10;;;;;;;7.47;2.88;;;8.00;99.90;;;;;;5074762;28;20043;-74
2023/12/16 00:17:36;;;;;;;9.02;2.95;;;8.00;99.90;;;;;;5071636;28;20565;-74
2023/12/16 00:20:03;;;;;;;15.15;2.47;;;8.00;99.90;;;;;;5071861;28;20041;-74
2023/12/16 00:22:29;;;;;;;12.88;3.33;;;8.00;99.90;;;;;;5074753;28;20094;-74
2023/12/16 00:24:55;;;;;;;7.28;2.47;;;8.00;99.90;;;;;;5074577;28;20059;-74
2023/12/16 00:27:21;;;;;;;10.85;3.00;;;8.00;99.90;;;;;;5054684;28;20116;-74
2023/12/16 00:29:46;;;;;;;8.63;2.53;;;8.00;99.90;;;;;;5071672;28;20041;-74
2023/12/16 00:32:12;;;;;;;7.93;2.88;;;8.00;99.90;;;;;;5074557;28;20036;-74
2023/12/16 00:34:38;;;;;;;10.38;3.08;;;7.90;99.90;;;;;;5072756;28;20479;-74
2023/12/16 00:37:06;;;;;;;6.25;2.05;;;8.00;99.90;;;;;;5072569;28;20037;-74
2023/12/16 00:39:32;;;;;;;8.77;2.90;;;7.80;99.90;;;;;;5073613;28;20036;-73
2023/12/16 00:41:58;;;;;;;11.45;3.13;;;7.90;99.90;;;;;;5070987;28;20052;-74
2023/12/16 00:44:24;;;;;;;6.63;2.78;;;7.80;99.90;;;;;;5073050;28;20056;-74
2023/12/16 00:46:49;;;;;;;11.30;2.38;;;7.70;99.90;;;;;;5071878;28;20151;-74
2023/12/16 00:49:15;;;;;;;9.85;2.55;;;7.80;99.90;;;;;;5073053;28;20055;-74
2023/12/16 00:51:40;;;;;;;7.07;2.55;;;7.70;99.90;;;;;;5073714;28;20032;-74
2023/12/16 00:54:06;;;;;;;5.78;3.13;;;7.80;99.90;;;;;;5073497;28;20514;-74
2023/12/16 00:56:32;;;;;;;9.57;2.30;;;7.80;99.90;;;;;;5072104;28;20100;-74
2023/12/16 00:58:57;;;;;;;9.38;2.63;;;7.70;99.90;;;;;;5071723;28;20040;-74
2023/12/16 01:01:23;;;;;;;6.60;2.17;;;7.70;99.90;;;;;;5073499;28;20440;-73
2023/12/16 01:03:49;;;;;;;14.63;2.67;;;7.70;99.90;;;;;;5072078;28;20087;-73
2023/12/16 01:06:14;;;;;;;10.75;2.22;;;7.70;99.90;;;;;;5072433;28;20040;-73
2023/12/16 01:08:42;;;;;;;5.53;1.63;;;7.70;99.90;;;;;;5073563;28;20040;-73
2023/12/16 01:11:07;;;;;;;5.78;1.90;;;7.70;99.90;;;;;;5072174;28;20079;-73
2023/12/16 01:13:33;;;;;;;5.07;2.35;;;7.60;99.90;;;;;;5070390;28;20076;-73
2023/12/16 01:15:58;;;;;;;12.88;2.63;;;7.60;99.90;;;;;;5073029;28;20037;-74
2023/12/16 01:18:24;;;;;;;8.98;1.70;;;7.60;99.90;;;;;;5071817;28;20036;-73
2023/12/16 01:20:51;;;;;;;8.88;2.03;;;7.60;99.90;;;;;;5073148;28;20032;-74
2023/12/16 01:23:16;;;;;;;6.82;2.10;;;7.60;99.90;;;;;;5071153;28;20526;-73
2023/12/16 01:25:42;;;;;;;11.10;3.03;;;7.60;99.90;;;;;;5076806;28;20037;-73
2023/12/16 01:28:07;;;;;;;5.78;1.83;;;7.60;99.90;;;;;;5077427;28;20032;-73
2023/12/16 01:30:33;;;;;;;4.22;1.15;;;7.60;99.90;;;;;;5074777;28;20035;-74
2023/12/16 01:32:59;;;;;;;4.40;1.40;;;7.50;99.90;;;;;;5074809;28;20040;-74
2023/12/16 01:35:24;;;;;;;7.65;1.63;;;7.50;99.90;;;;;;5077049;28;20495;-73
2023/12/16 01:37:50;;;;;;;9.15;2.63;;;7.50;99.90;;;;;;5074809;28;20082;-73
2023/12/16 01:40:15;;;;;;;11.20;1.70;;;7.50;99.90;;;;;;5075098;28;20045;-74
2023/12/16 01:42:41;;;;;;;7.28;2.00;;;7.50;99.90;;;;;;5076278;28;20048;-73
2023/12/16 01:45:07;;;;;;;4.88;1.52;;;7.50;99.90;;;;;;5076064;28;20047;-73
2023/12/16 01:47:33;;;;;;;5.18;1.52;;;7.40;99.90;;;;;;5075530;28;20079;-73
2023/12/16 01:49:59;;;;;;;6.78;1.95;;;7.40;99.90;;;;;;5075427;28;20032;-73
2023/12/16 01:52:25;;;;;;;6.65;1.77;;;7.30;99.90;;;;;;5076277;28;20519;-74
2023/12/16 01:54:51;;;;;;;8.55;1.95;;;7.30;99.90;;;;;;5075605;28;20044;-74
2023/12/16 01:57:17;;;;;;;8.55;1.63;;;7.30;99.90;;;;;;5076134;28;20044;-74
2023/12/16 01:59:43;;;;;;;9.90;2.88;;;7.40;99.90;;;;;;5074336;28;20499;-73
2023/12/16 02:02:10;;;;;;;8.70;1.85;;;7.30;99.90;;;;;;5075257;28;20106;-73
2023/12/16 02:04:37;;;;;;;7.53;1.85;;;7.30;99.90;;;;;;5076482;28;20122;-74
2023/12/16 02:07:04;;;;;;;6.45;2.55;;;7.30;99.90;;;;;;5076135;28;20044;-73
2023/12/16 02:09:29;;;;;;;5.70;2.00;;;7.30;99.90;;;;;;5075077;28;20040;-73
2023/12/16 02:11:55;;;;;;;9.93;1.83;;;7.20;99.90;;;;;;5076397;28;20040;-73
2023/12/16 02:14:21;;;;;;;8.45;1.90;;;7.20;99.90;;;;;;5076872;28;20044;-73
2023/12/16 02:16:46;;;;;;;4.38;1.80;;;7.20;99.90;;;;;;5074864;28;20051;-74
2023/12/16 02:19:18;;;;;;;6.57;1.98;;;7.20;99.90;;;;;;5076322;28;20093;-73
2023/12/16 02:21:43;;;;;;;10.82;2.30;;;7.10;99.90;;;;;;5073985;28;20488;-73
2023/12/16 02:24:09;;;;;;;6.60;2.25;;;7.20;99.90;;;;;;5070602;28;20032;-74
2023/12/16 02:26:34;;;;;;;8.90;1.77;;;7.10;99.90;;;;;;5073779;28;20112;-74
2023/12/16 02:29:00;;;;;;;7.97;1.95;;;7.10;99.90;;;;;;5075414;28;20081;-74
2023/12/16 02:31:26;;;;;;;7.38;2.28;;;7.10;99.90;;;;;;5075885;28;20119;-73
2023/12/16 02:33:51;;;;;;;9.55;2.13;;;7.10;99.90;;;;;;5089528;22;20049;-73
2023/12/16 02:36:17;;;;;;;11.02;1.92;;;7.10;99.90;;;;;;5052205;28;20546;-73
2023/12/16 02:38:43;;;;;;;12.73;3.22;;;7.10;99.90;;;;;;5054095;28;20488;-73
2023/12/16 02:41:08;;;;;;;7.60;2.25;;;7.10;99.90;;;;;;5053079;28;20033;-73
2023/12/16 02:43:34;;;;;;;6.65;2.38;;;7.10;99.90;;;;;;5059076;28;20045;-73
2023/12/16 02:45:59;;;;;;;7.95;2.13;;;7.00;99.90;;;;;;5073959;28;20028;-73
2023/12/16 02:48:25;;;;;;;7.18;2.58;;;7.00;99.90;;;;;;5071951;28;20044;-73
2023/12/16 02:50:51;;;;;;;14.02;2.05;;;7.00;99.90;;;;;;5074154;28;20112;-73
2023/12/16 02:53:16;;;;;;;12.90;2.78;;;7.00;99.90;;;;;;5073917;28;20044;-73
2023/12/16 02:55:42;;;;;;;12.45;2.30;;;6.90;99.90;;;;;;5074025;28;20038;-73
2023/12/16 02:58:07;;;;;;;11.05;2.75;;;6.90;99.90;;;;;;5073682;28;20478;-73
2023/12/16 03:00:33;;;;;;;7.45;2.65;;;6.90;99.90;;;;;;5074119;28;20043;-73
2023/12/16 03:02:58;;;;;;;10.52;3.55;;;6.90;99.90;;;;;;5073982;28;20066;-73
2023/12/16 03:05:24;;;;;;;11.10;2.35;;;6.90;99.90;;;;;;5073850;28;20045;-73
2023/12/16 03:07:49;;;;;;;10.00;1.90;;;6.90;99.90;;;;;;5073761;28;20060;-73
2023/12/16 03:10:15;;;;;;;7.57;3.05;;;6.90;99.90;;;;;;5073703;28;20431;-73
2023/12/16 03:12:41;;;;;;;10.63;2.55;;;6.80;99.90;;;;;;5073559;28;20090;-73
2023/12/16 03:15:07;;;;;;;11.63;2.70;;;6.80;99.90;;;;;;5073550;28;20044;-73
2023/12/16 03:17:33;;;;;;;6.65;2.38;;;6.80;99.90;;;;;;5073359;28;20518;-73
2023/12/16 03:19:59;;;;;;;8.05;2.78;;;6.80;99.90;;;;;;5072543;28;20129;-73
2023/12/16 03:22:24;;;;;;;8.40;3.50;;;6.70;99.90;;;;;;5073701;28;20044;-73
2023/12/16 03:24:50;;;;;;;8.25;1.95;;;6.70;99.90;;;;;;5073425;28;20068;-73
2023/12/16 03:27:15;;;;;;;14.65;2.97;;;6.70;99.90;;;;;;5073077;28;20518;-73
2023/12/16 03:29:41;;;;;;;6.32;1.90;;;6.80;99.90;;;;;;5072191;28;20048;-73
2023/12/16 03:32:07;;;;;;;7.53;2.00;;;6.80;99.90;;;;;;5073576;28;20115;-73
2023/12/16 03:34:32;;;;;;;10.20;2.80;;;6.80;99.90;;;;;;5073138;28;20063;-72
2023/12/16 03:36:58;;;;;;;9.90;2.53;;;6.70;99.90;;;;;;5071784;28;20080;-73
2023/12/16 03:39:23;;;;;;;8.30;3.05;;;6.70;99.90;;;;;;5073243;28;20115;-73
2023/12/16 03:41:49;;;;;;;13.45;2.92;;;6.60;99.90;;;;;;5073098;28;20044;-72
2023/12/16 03:44:15;;;;;;;10.77;2.22;;;6.60;99.90;;;;;;5072991;28;20053;-72
2023/12/16 03:46:41;;;;;;;10.73;3.40;;;6.60;99.90;;;;;;5072455;28;20067;-72
2023/12/16 03:49:06;;;;;;;9.05;2.60;;;6.60;99.90;;;;;;5073112;28;20059;-72
2023/12/16 03:51:32;;;;;;;11.85;2.65;;;6.60;99.90;;;;;;5073080;28;20111;-72
2023/12/16 03:53:57;;;;;;;8.02;2.38;;;6.50;99.90;;;;;;5072909;28;20066;-72
2023/12/16 03:56:23;;;;;;;6.97;2.78;;;6.50;99.90;;;;;;5071582;28;20468;-72
2023/12/16 03:58:48;;;;;;;8.63;2.38;;;6.60;99.90;;;;;;5072749;28;20479;-72
2023/12/16 04:01:14;;;;;;;16.02;2.47;;;6.50;99.90;;;;;;5072658;28;20085;-72
2023/12/16 04:03:40;;;;;;;11.07;2.65;;;6.50;99.90;;;;;;5072685;28;20036;-72
2023/12/16 04:06:13;;;;;;;7.40;2.33;;;6.50;99.90;;;;;;5072526;28;20045;-73
2023/12/16 04:08:41;;;;;;;9.30;3.25;;;6.50;99.90;;;;;;5072488;28;20121;-72
2023/12/16 04:11:08;;;;;;;10.00;2.88;;;6.50;99.90;;;;;;5072464;28;20522;-72
2023/12/16 04:13:36;;;;;;;8.98;2.65;;;6.50;99.90;;;;;;5072363;28;20499;-72
2023/12/16 04:16:03;;;;;;;12.13;2.72;;;6.50;99.90;;;;;;5072496;28;20043;-72
2023/12/16 04:18:30;;;;;;;8.63;2.15;;;6.40;99.90;;;;;;5072281;28;20495;-72
2023/12/16 04:20:56;;;;;;;12.30;3.00;;;6.40;99.90;;;;;;5072430;28;20162;-72
2023/12/16 04:23:22;;;;;;;10.40;3.05;;;6.50;99.90;;;;;;5072199;28;20543;-72
2023/12/16 04:25:47;;;;;;;9.07;3.08;;;6.50;99.90;;;;;;5072109;28;20033;-72
2023/12/16 04:28:13;;;;;;;10.88;2.45;;;6.50;99.90;;;;;;5071060;28;20514;-72
2023/12/16 04:30:38;;;;;;;10.15;2.50;;;6.40;99.90;;;;;;5072378;28;20033;-72
2023/12/16 04:33:04;;;;;;;10.93;3.00;;;6.50;99.90;;;;;;5072069;28;20032;-72
2023/12/16 04:35:29;;;;;;;12.65;2.90;;;6.50;99.90;;;;;;5072196;28;20037;-72
2023/12/16 04:37:55;;;;;;;10.68;2.97;;;6.50;99.90;;;;;;5071866;28;20032;-72
2023/12/16 04:40:21;;;;;;;13.57;2.28;;;6.50;99.90;;;;;;5071885;28;20043;-72
2023/12/16 04:42:47;;;;;;;12.40;2.25;;;6.50;99.90;;;;;;5070830;28;20040;-72
2023/12/16 04:45:12;;;;;;;11.60;2.78;;;6.50;99.90;;;;;;5072163;28;20098;-72
2023/12/16 04:47:38;;;;;;;9.80;2.60;;;6.60;99.90;;;;;;5070686;28;20033;-72
2023/12/16 04:50:05;;;;;;;10.65;3.40;;;6.60;99.90;;;;;;5070683;28;20157;-72
2023/12/16 04:52:30;;;;;;;13.20;3.78;;;6.50;99.90;;;;;;5071992;28;20037;-72
2023/12/16 04:54:56;;;;;;;10.18;3.22;;;6.50;99.90;;;;;;5071663;28;20037;-72
2023/12/16 04:57:21;;;;;;;12.07;2.83;;;6.50;99.90;;;;;;5070052;28;20500;-72
2023/12/16 04:59:47;;;;;;;16.27;3.30;;;6.60;99.90;;;;;;5070217;28;20139;-72
2023/12/16 05:02:12;;;;;;;14.05;4.28;;;6.60;99.90;;;;;;5070816;28;20530;-72
2023/12/16 05:04:38;;;;;;;14.30;3.08;;;6.60;99.90;;;;;;5070372;28;20045;-72
2023/12/16 05:07:04;;;;;;;7.55;2.47;;;6.60;99.90;;;;;;5070542;28;20040;-72
2023/12/16 05:09:29;;;;;;;13.27;2.95;;;6.60;99.90;;;;;;5071610;28;20072;-72
2023/12/16 05:11:56;;;;;;;11.52;3.53;;;6.50;99.90;;;;;;5071887;28;20038;-72
2023/12/16 05:14:22;;;;;;;14.27;3.05;;;6.50;99.90;;;;;;5071546;28;20483;-72
2023/12/16 05:16:48;;;;;;;8.82;2.78;;;6.60;99.90;;;;;;5071394;28;20046;-72
2023/12/16 05:19:14;;;;;;;12.43;2.83;;;6.60;99.90;;;;;;5071623;28;20075;-72
2023/12/16 05:21:39;;;;;;;14.73;2.95;;;6.50;99.90;;;;;;5071661;28;20081;-72
2023/12/16 05:24:05;;;;;;;14.75;2.90;;;6.50;99.90;;;;;;5071339;28;20449;-72
2023/12/16 05:26:31;;;;;;;13.05;3.25;;;6.60;99.90;;;;;;5071469;28;20032;-72
2023/12/16 05:28:57;;;;;;;14.38;3.25;;;6.50;99.90;;;;;;5071479;28;20508;-72
2023/12/16 05:31:23;;;;;;;10.77;3.08;;;6.50;99.90;;;;;;5071669;28;20049;-73
2023/12/16 05:33:49;;;;;;;9.32;3.55;;;6.50;99.90;;;;;;5071417;28;20051;-72
2023/12/16 05:36:15;;;;;;;13.15;3.83;;;6.60;99.90;;;;;;5071379;28;20036;-72
2023/12/16 05:38:40;;;;;;;12.05;3.97;;;6.50;99.90;;;;;;5070032;28;20039;-72
2023/12/16 05:41:06;;;;;;;14.70;3.60;;;6.50;99.90;;;;;;5071599;28;20093;-73
2023/12/16 05:43:32;;;;;;;10.75;3.92;;;6.60;99.90;;;;;;5070230;28;20573;-72
2023/12/16 05:45:58;;;;;;;13.68;3.90;;;6.50;99.90;;;;;;5071193;28;20128;-72
2023/12/16 05:48:24;;;;;;;14.30;3.78;;;6.60;99.90;;;;;;5071274;28;20039;-72
2023/12/16 05:50:49;;;;;;;8.68;3.35;;;6.60;99.90;;;;;;5070057;28;20415;-72
2023/12/16 05:53:15;;;;;;;10.13;3.05;;;6.60;99.90;;;;;;5071117;28;20086;-72
2023/12/16 05:55:41;;;;;;;13.38;3.60;;;6.50;99.90;;;;;;5069935;28;20032;-72
2023/12/16 05:58:06;;;;;;;13.65;4.80;;;6.60;99.90;;;;;;5053428;28;20399;-72
2023/12/16 06:00:32;;;;;;;15.32;4.28;;;6.60;99.90;;;;;;5071321;28;20563;-72
2023/12/16 06:02:58;;;;;;;20.17;3.70;;;6.70;99.90;;;;;;5071067;28;20052;-72
2023/12/16 06:05:24;;;;;;;14.75;4.90;;;6.70;99.90;;;;;;5069755;28;20078;-72
2023/12/16 06:07:49;;;;;;;18.35;4.85;;;6.80;99.90;;;;;;5070777;28;20154;-72
2023/12/16 06:10:15;;;;;;;15.65;3.75;;;6.90;99.90;;;;;;5073394;28;20078;-72
2023/12/16 06:12:40;;;;;;;14.20;4.10;;;6.80;99.90;;;;;;5074888;28;20491;-72
2023/12/16 06:15:07;;;;;;;24.92;4.88;;;6.90;99.90;;;;;;5074784;28;20141;-72
2023/12/16 06:17:32;;;;;;;11.70;3.97;;;6.90;99.90;;;;;;5074593;28;20174;-72
2023/12/16 06:19:58;;;;;;;11.95;4.30;;;7.10;99.90;;;;;;5074700;28;20075;-72
2023/12/16 06:22:24;;;;;;;17.50;5.40;;;7.00;99.90;;;;;;5074524;28;20044;-72
2023/12/16 06:24:49;;;;;;;17.35;5.93;;;7.00;99.90;;;;;;5073489;28;20040;-72
2023/12/16 06:27:15;;;;;;;13.80;4.13;;;7.10;99.90;;;;;;5074454;28;20040;-72
2023/12/16 06:29:41;;;;;;;17.90;3.83;;;7.10;99.90;;;;;;5073231;28;20041;-72
2023/12/16 06:32:07;;;;;;;16.35;5.28;;;7.10;99.90;;;;;;5074588;28;20129;-72
2023/12/16 06:34:33;;;;;;;17.17;4.90;;;7.10;99.90;;;;;;5074283;28;20037;-72
2023/12/16 06:36:58;;;;;;;20.75;4.93;;;7.10;99.90;;;;;;5072788;28;20044;-72
2023/12/16 06:39:24;;;;;;;21.40;5.68;;;7.20;99.90;;;;;;5073128;28;20041;-72
2023/12/16 06:41:50;;;;;;;26.38;5.18;;;7.20;99.90;;;;;;5074491;28;20074;-72
2023/12/16 06:44:15;;;;;;;19.60;5.82;;;7.20;99.90;;;;;;5073059;28;20036;-73
2023/12/16 06:46:41;;;;;;;16.90;4.43;;;7.30;99.90;;;;;;5074029;28;20039;-72
2023/12/16 06:49:07;;;;;;;11.10;4.40;;;7.30;99.90;;;;;;5074169;28;20086;-72
2023/12/16 06:51:32;;;;;;;21.08;4.30;;;7.30;99.90;;;;;;5074105;28;20115;-74
2023/12/16 06:53:58;;;;;;;13.10;4.32;;;7.30;99.90;;;;;;5074134;28;20040;-71
2023/12/16 06:56:23;;;;;;;20.50;6.22;;;7.20;99.90;;;;;;5073971;28;20033;-71
2023/12/16 06:58:49;;;;;;;15.95;5.40;;;7.40;99.90;;;;;;5074214;28;20032;-71
2023/12/16 07:01:15;;;;;;;28.95;7.35;;;7.30;99.90;;;;;;5074096;28;20041;-71
2023/12/16 07:03:40;;;;;;;22.60;5.75;;;7.30;99.90;;;;;;5073859;28;20040;-71
2023/12/16 07:06:07;;;;;;;13.13;5.22;;;7.50;99.90;;;;;;5072490;28;20117;-71
2023/12/16 07:08:35;;;;;;;20.92;6.47;;;7.40;99.90;;;;;;5073951;28;20094;-71
2023/12/16 07:11:03;;;;;;;19.52;6.47;;;7.40;99.90;;;;;;5073842;28;20036;-72
2023/12/16 07:13:29;;;;;;;14.60;5.85;;;7.40;99.90;;;;;;5072655;28;20043;-71
2023/12/16 07:15:54;;;;;;;18.10;6.30;;;7.50;99.90;;;;;;5073683;28;20059;-71
2023/12/16 07:18:20;;;;;;;22.75;6.30;;;7.50;99.90;;;;;;5073574;28;20032;-71
2023/12/16 07:20:46;;;;;;;22.33;7.57;;;7.30;99.90;;;;;;5072816;28;20033;-71
2023/12/16 07:23:11;;;;;;;20.55;6.40;;;7.40;99.90;;;;;;5073425;28;20090;-72
2023/12/16 07:25:37;;;;;;;23.98;6.25;;;7.50;99.90;;;;;;5073160;28;20044;-72
2023/12/16 07:28:03;;;;;;;17.88;5.65;;;7.50;99.90;;;;;;5073363;28;20044;-72
2023/12/16 07:30:32;;;;;;;19.92;5.72;;;7.40;99.90;;;;;;5073448;28;20068;-72
2023/12/16 07:32:57;;;;;;;19.83;7.22;;;7.50;99.90;;;;;;5073226;28;20512;-72
2023/12/16 07:35:23;;;;;;;34.38;7.53;;;7.40;99.90;;;;;;5073220;28;20119;-72
2023/12/16 07:37:49;;;;;;;19.48;7.00;;;7.40;99.90;;;;;;5072008;28;20124;-72
2023/12/16 07:40:15;;;;;;;24.23;7.18;;;7.40;99.90;;;;;;5072134;28;20123;-72
2023/12/16 07:42:41;;;;;;;24.58;7.55;;;7.60;99.90;;;;;;5073118;28;20488;-72
2023/12/16 07:45:07;;;;;;;30.50;7.28;;;7.40;99.90;;;;;;5071602;28;20472;-72
2023/12/16 07:47:33;;;;;;;30.90;7.55;;;7.40;99.90;;;;;;5071496;28;20058;-71
2023/12/16 07:49:59;;;;;;;27.17;7.78;;;7.40;99.90;;;;;;5072217;28;20032;-71
2023/12/16 07:52:24;;;;;;;33.22;7.47;;;7.60;99.90;;;;;;5072413;28;20036;-71
2023/12/16 07:54:50;;;;;;;25.23;7.78;;;7.60;99.90;;;;;;5072956;28;20044;-72
2023/12/16 07:57:16;;;;;;;35.17;8.00;;;7.60;99.90;;;;;;5072692;28;20047;-71
2023/12/16 07:59:42;;;;;;;28.70;8.23;;;7.70;99.90;;;;;;5072718;28;20415;-72
2023/12/16 08:02:08;;;;;;;24.95;8.48;;;7.60;99.90;;;;;;5072761;28;20474;-72
2023/12/16 08:04:35;;;;;;;32.15;8.07;;;7.60;99.90;;;;;;5072653;28;20044;-72
2023/12/16 08:07:01;;;;;;;18.40;7.47;;;7.60;99.90;;;;;;5071055;28;20029;-72
2023/12/16 08:09:27;;;;;;;27.75;7.97;;;7.70;99.90;;;;;;5072741;28;20119;-72
2023/12/16 08:11:58;;;;;;;28.13;7.80;;;7.60;99.90;;;;;;5072630;28;20559;-72
2023/12/16 08:14:24;;;;;;;28.65;9.00;;;7.80;99.90;;;;;;5071125;28;20123;-72
2023/12/16 08:16:49;;;;;;;32.40;8.65;;;7.70;99.90;;;;;;5070695;28;20407;-72
2023/12/16 08:19:15;;;;;;;27.02;7.57;;;7.80;99.90;;;;;;5071182;28;20044;-72
2023/12/16 08:21:41;;;;;;;35.90;8.20;;;7.70;99.90;;;;;;5054722;28;20037;-72
2023/12/16 08:24:06;;;;;;;24.92;7.93;;;7.80;99.90;;;;;;5071700;28;20045;-72
2023/12/16 08:26:32;;;;;;;26.35;7.90;;;7.70;99.90;;;;;;5070343;28;20503;-72
2023/12/16 08:28:57;;;;;;;21.35;9.13;;;7.90;99.90;;;;;;5070593;28;20040;-72
2023/12/16 08:31:23;;;;;;;26.50;8.75;;;7.80;99.90;;;;;;5069983;28;20120;-72
2023/12/16 08:33:49;;;;;;;26.00;7.80;;;7.70;99.90;;;;;;5093917;22;20472;-71
2023/12/16 08:36:15;;;;;;;23.60;8.70;;;7.70;99.90;;;;;;5082063;28;20040;-71
2023/12/16 08:38:40;;;;;;;26.52;7.40;;;7.90;99.90;;;;;;5068157;28;20037;-71
2023/12/16 08:41:08;;;;;;;24.83;7.75;;;7.90;99.90;;;;;;5070874;28;20086;-71
2023/12/16 08:43:34;;;;;;;30.40;8.80;;;7.80;99.90;;;;;;5072091;28;20063;-71
2023/12/16 08:46:00;;;;;;;25.05;8.30;;;8.00;99.90;;;;;;5052870;28;20033;-71
2023/12/16 08:48:26;;;;;;;28.33;7.32;;;7.80;99.90;;;;;;5051922;28;20519;-70
2023/12/16 08:50:53;;;;;;;25.55;8.88;;;7.90;99.90;;;;;;5051959;28;20037;-70
2023/12/16 08:53:19;;;;;;;24.15;7.75;;;7.80;99.90;;;;;;5052172;28;20068;-70
2023/12/16 08:55:44;;;;;;;28.63;8.32;;;8.00;99.90;;;;;;5050495;28;20047;-71
2023/12/16 08:58:10;;;;;;;28.08;9.02;;;7.80;99.90;;;;;;5051732;28;20045;-71
2023/12/16 09:00:36;;;;;;;25.08;7.53;;;8.00;99.90;;;;;;5051332;28;20063;-72
2023/12/16 09:03:01;;;;;;;33.70;8.45;;;8.00;99.90;;;;;;5050400;28;20474;-71
2023/12/16 09:05:28;;;;;;;28.83;9.00;;;8.00;99.90;;;;;;5050310;28;20492;-71
2023/12/16 09:07:54;;;;;;;27.13;9.10;;;7.90;99.90;;;;;;5033885;28;20493;-71
2023/12/16 09:10:19;;;;;;;31.83;8.73;;;8.10;99.90;;;;;;5051259;28;20108;-71
2023/12/16 09:12:47;;;;;;;22.17;7.75;;;8.00;99.90;;;;;;5051265;28;20040;-72
2023/12/16 09:15:13;;;;;;;28.63;8.63;;;7.80;99.90;;;;;;5049624;28;20063;-71
2023/12/16 09:17:39;;;;;;;28.00;9.45;;;8.00;99.90;;;;;;5050968;28;20451;-71
2023/12/16 09:20:06;;;;;;;30.40;9.52;;;8.00;99.90;;;;;;5050816;28;20075;-72
2023/12/16 09:22:31;;;;;;;32.42;8.85;;;7.90;99.90;;;;;;5050440;28;20044;-71
2023/12/16 09:24:57;;;;;;;28.98;8.93;;;8.10;99.90;;;;;;5050317;28;20052;-71
2023/12/16 09:27:22;;;;;;;34.08;11.02;;;8.00;99.90;;;;;;5049981;28;20040;-71
2023/12/16 09:29:48;;;;;;;26.73;9.32;;;7.90;99.90;;;;;;5050542;28;20049;-70
2023/12/16 09:32:14;;;;;;;28.92;10.70;;;8.00;99.90;;;;;;5051577;28;20033;-70
2023/12/16 09:34:41;;;;;;;21.75;9.70;;;7.90;99.90;;;;;;5050380;28;20037;-70
2023/12/16 09:37:08;;;;;;;31.40;9.63;;;7.90;99.90;;;;;;5051461;28;20041;-70
2023/12/16 09:39:34;;;;;;;32.25;10.02;;;8.00;99.90;;;;;;5033733;28;20045;-70
2023/12/16 09:42:02;;;;;;;25.25;9.60;;;8.00;99.90;;;;;;5051452;28;20037;-70
2023/12/16 09:44:30;;;;;;;25.20;9.20;;;8.00;99.90;;;;;;5052127;28;20124;-70
2023/12/16 09:46:59;;;;;;;29.45;9.23;;;8.00;99.90;;;;;;5053864;28;20041;-71
2023/12/16 09:49:26;;;;;;;21.15;9.40;;;8.00;99.90;;;;;;5037551;28;20037;-70
2023/12/16 09:51:52;;;;;;;24.35;10.48;;;8.10;99.90;;;;;;5053962;28;20123;-70
2023/12/16 09:54:18;;;;;;;25.98;9.30;;;8.00;99.90;;;;;;5055092;28;20500;-70
2023/12/16 09:56:46;;;;;;;26.90;9.00;;;8.00;99.90;;;;;;5053613;28;20048;-71
2023/12/16 09:59:13;;;;;;;25.13;10.15;;;7.90;99.90;;;;;;5053848;28;20080;-70
2023/12/16 10:01:40;;;;;;;25.05;9.77;;;8.10;99.90;;;;;;5055058;28;20512;-70
2023/12/16 10:04:07;;;;;;;26.10;10.10;;;8.00;99.90;;;;;;5053660;28;20072;-70
2023/12/16 10:06:33;;;;;;;26.42;9.23;;;8.10;99.90;;;;;;5054919;28;20041;-70
2023/12/16 10:08:59;;;;;;;35.92;11.38;;;8.00;99.90;;;;;;5053719;28;20120;-71
2023/12/16 10:11:25;;;;;;;33.20;12.27;;;8.00;99.90;;;;;;5037029;28;20129;-70
2023/12/16 10:14:00;;;;;;;29.42;11.13;;;8.00;99.90;;;;;;5054665;28;20068;-70
2023/12/16 10:16:26;;;;;;;34.08;11.57;;;8.10;99.90;;;;;;5054768;28;20083;-70
2023/12/16 10:18:54;;;;;;;34.65;10.93;;;8.00;99.90;;;;;;5054998;28;20492;-70
2023/12/16 10:21:27;;;;;;;32.78;12.15;;;8.00;99.90;;;;;;5054799;28;20090;-70
2023/12/16 10:23:55;;;;;;;;;;;8.20;99.90;;;;;;5053315;28;20039;-70
2023/12/16 10:26:21;;;;;;;29.90;11.35;;;8.10;99.90;;;;;;5050085;28;19924;-70
2023/12/16 10:28:47;;;;;;;29.48;12.82;;;8.10;99.90;;;;;;5053247;28;20045;-70
2023/12/16 10:31:15;;;;;;;34.50;11.20;;;8.10;99.90;;;;;;5054745;28;20072;-70
2023/12/16 10:33:41;;;;;;;35.15;12.23;;;8.10;99.90;;;;;;5054673;28;20408;-70
2023/12/16 10:36:08;;;;;;;27.50;11.15;;;8.30;99.90;;;;;;5053820;28;20037;-71
2023/12/16 10:38:33;;;;;;;28.98;11.82;;;8.10;99.90;;;;;;5052962;28;20037;-70
2023/12/16 10:40:59;;;;;;;31.33;11.90;;;8.20;99.90;;;;;;5053059;28;20058;-71
2023/12/16 10:43:24;;;;;;;34.88;11.55;;;8.20;99.90;;;;;;5054595;28;20078;-70
2023/12/16 10:45:51;;;;;;;28.75;11.18;;;8.30;99.90;;;;;;5054223;28;20045;-71
2023/12/16 10:48:20;;;;;;;38.30;11.93;;;8.30;99.90;;;;;;5052828;28;20040;-71
2023/12/16 10:50:47;;;;;;;29.55;12.05;;;8.20;99.90;;;;;;5036426;28;20138;-74
2023/12/16 10:53:25;;;;;;;26.73;12.40;;;8.10;99.90;;;;;;5052616;28;20033;-74
2023/12/16 10:55:58;;;;;;;38.42;13.23;;;8.20;99.90;;;;;;5035136;28;20049;-75
2023/12/16 10:58:42;;;;;;;29.50;12.40;;;8.10;99.90;;;;;;5052934;28;20052;-75
2023/12/16 11:01:17;;;;;;;36.85;12.02;;;8.10;99.90;;;;;;5036345;28;20037;-75
2023/12/16 11:03:58;;;;;;;34.85;12.68;;;8.20;99.90;;;;;;5052928;28;20043;-75
2023/12/16 11:06:48;;;;;;;29.58;13.23;;;8.20;99.90;;;;;;5052751;28;20033;-75
2023/12/16 11:09:15;;;;;;;26.58;12.52;;;8.30;99.90;;;;;;5052930;28;20044;-75
2023/12/16 11:11:42;;;;;;;35.53;12.23;;;8.20;99.90;;;;;;5036390;28;20496;-75
2023/12/16 11:14:08;;;;;;;23.58;10.77;;;8.20;99.90;;;;;;5036222;28;20047;-75
2023/12/16 11:16:50;;;;;;;30.45;10.85;;;8.30;99.90;;;;;;5052388;28;20045;-75
2023/12/16 11:19:18;;;;;;;24.05;11.15;;;8.40;99.90;;;;;;5052446;28;20504;-75
2023/12/16 11:21:45;;;;;;;24.80;11.18;;;8.20;99.90;;;;;;5052557;28;20041;-75
2023/12/16 11:24:11;;;;;;;29.50;12.10;;;8.40;99.90;;;;;;5052349;28;20076;-75
2023/12/16 11:26:37;;;;;;;26.63;11.40;;;8.40;99.90;;;;;;5052197;28;20109;-75
2023/12/16 11:29:03;;;;;;;28.15;12.27;;;8.30;99.90;;;;;;5035719;28;20033;-75
2023/12/16 11:31:30;;;;;;;35.15;13.20;;;8.30;99.90;;;;;;5052377;28;20056;-75
2023/12/16 11:33:55;;;;;;;24.40;12.27;;;8.30;99.90;;;;;;5052310;28;20036;-75
2023/12/16 11:36:49;;;;;;;31.85;12.48;;;8.50;99.90;;;;;;5052005;28;20071;-75
2023/12/16 11:39:34;;;;;;;24.65;11.90;;;8.40;99.90;;;;;;5042700;28;20064;-75
2023/12/16 11:42:00;;;;;;;33.00;13.02;;;8.50;99.90;;;;;;5052604;28;20084;-75
2023/12/16 11:44:48;;;;;;;31.67;13.50;;;8.60;99.90;;;;;;5051952;28;20076;-75
2023/12/16 11:47:24;;;;;;;27.35;13.57;;;8.50;99.90;;;;;;5051945;28;20106;-75
2023/12/16 11:49:55;;;;;;;33.55;14.00;;;8.70;99.90;;;;;;5035524;28;20041;-75
2023/12/16 11:52:23;;;;;;;34.47;13.88;;;8.50;99.90;;;;;;5035264;28;20044;-75
2023/12/16 11:54:52;;;;;;;29.23;12.90;;;8.60;99.90;;;;;;5059834;28;20048;-74
2023/12/16 11:57:27;;;;;;;33.47;12.50;;;8.70;99.90;;;;;;5071482;28;20040;-75
2023/12/16 11:59:56;;;;;;;25.90;11.32;;;8.70;99.90;;;;;;5055009;28;20045;-75
2023/12/16 12:02:22;;;;;;;30.73;12.07;;;8.70;99.90;;;;;;5072965;28;20051;-75
2023/12/16 12:04:47;;;;;;;31.52;12.88;;;8.80;99.90;;;;;;5071442;28;20127;-75
2023/12/16 12:07:16;;;;;;;29.15;11.45;;;9.00;99.90;;;;;;5070996;28;20115;-75
2023/12/16 12:09:43;;;;;;;35.60;10.65;;;8.90;99.90;;;;;;5071831;28;20072;-75
2023/12/16 12:12:11;;;;;;;24.73;10.77;;;9.00;99.90;;;;;;5072934;28;20515;-76
2023/12/16 12:14:46;;;;;;;21.40;9.63;;;9.10;99.90;;;;;;5071332;28;20044;-75
2023/12/16 12:17:13;;;;;;;21.50;9.90;;;9.00;99.90;;;;;;5071179;28;20087;-75
2023/12/16 12:19:42;;;;;;;24.65;9.55;;;9.10;99.90;;;;;;5072800;28;20123;-75
2023/12/16 12:22:07;;;;;;;19.00;8.80;;;9.10;99.90;;;;;;5071535;28;20044;-75
2023/12/16 12:24:33;;;;;;;21.77;9.70;;;9.30;99.90;;;;;;5071349;28;20036;-75
2023/12/16 12:26:59;;;;;;;18.77;9.52;;;9.10;99.90;;;;;;5071500;28;20037;-75
2023/12/16 12:29:25;;;;;;;19.55;7.72;;;9.10;99.90;;;;;;5071124;28;20120;-75
2023/12/16 12:31:52;;;;;;;19.90;8.48;;;9.20;99.90;;;;;;5071225;28;20119;-75
2023/12/16 12:34:23;;;;;;;18.88;7.47;;;9.20;99.90;;;;;;5070923;28;20044;-75
2023/12/16 12:36:54;;;;;;;16.60;7.82;;;9.30;99.90;;;;;;5070853;28;20123;-75
2023/12/16 12:39:20;;;;;;;17.10;7.07;;;9.30;99.90;;;;;;5071317;28;20047;-75
2023/12/16 12:42:02;;;;;;;20.52;8.18;;;9.20;99.90;;;;;;5071128;28;20052;-75
2023/12/16 12:44:30;;;;;;;12.73;6.47;;;9.40;99.90;;;;;;5070816;28;20560;-75